Time;durP1;ratioP1;P1;durP2;ratioP2;P2;SDS_P1;SDS_P2;PMS_P1;PMS_P2;Temp;Humidity;BMP_temperature;BMP_pressure;BME280_temperature;BME280_humidity;BME280_pressure;Samples;Min_cycle;Max_cycle;Signal;HPM_P1;HPM_P2
2022/06/20 00:00:10;;;;;;;;;;;;;;;26.69;49.80;98983.31;1088052;54;19943;-81
2022/06/20 00:01:12;;;;;;;;;;;;;;;26.69;49.78;98982.50;1088373;54;19970;-80
2022/06/20 00:02:19;;;;;;;;;;;;;;;26.69;49.63;98977.81;1088460;54;19943;-82
2022/06/20 00:03:24;;;;;;;;;;;;;;;26.66;49.76;98974.81;1088485;54;19958;-80
2022/06/20 00:04:28;;;;;;;;;;;;;;;26.66;49.57;98978.41;1088496;54;19990;-82
2022/06/20 00:05:30;;;;;;;;;;;;;;;26.66;49.60;98975.66;1090236;46;20002;-81
2022/06/20 00:06:34;;;;;;;;;;;;;;;26.63;49.81;98974.28;1088489;54;19945;-81
2022/06/20 00:07:35;;;;;;;;;;;;;;;26.65;49.57;98971.28;1088403;54;19947;-81
2022/06/20 00:08:39;;;;;;;;;;;;;;;26.66;49.45;98972.06;1088446;54;20644;-80
2022/06/20 00:09:41;;;;;;;;;;;;;;;26.62;49.66;98969.06;1088256;54;19942;-79
2022/06/20 00:10:45;;;;;;;;;;;;;;;26.57;49.97;98978.13;1088382;54;19957;-81
2022/06/20 00:11:48;;;;;;;;;;;;;;;26.59;49.79;98975.13;1088428;54;20708;-82
2022/06/20 00:12:52;;;;;;;;;;;;;;;26.59;49.63;98973.19;1088434;54;19938;-81
2022/06/20 00:13:55;;;;;;;;;;;;;;;26.58;49.81;98982.50;1090406;46;19986;-80
2022/06/20 00:15:00;;;;;;;;;;;;;;;26.56;49.71;98973.75;1088470;54;19950;-80
2022/06/20 00:16:02;;;;;;;;;;;;;;;26.56;49.74;98968.25;1088262;54;19927;-82
2022/06/20 00:17:11;;;;;;;;;;;;;;;26.55;49.65;98974.84;1087993;54;19966;-82
2022/06/20 00:18:12;;;;;;;;;;;;;;;26.54;49.71;98972.38;1088241;54;19950;-82
2022/06/20 00:19:19;;;;;;;;;;;;;;;26.54;49.92;98966.91;1088435;54;19942;-80
2022/06/20 00:20:21;;;;;;;;;;;;;;;26.53;49.47;98963.34;1088512;54;19943;-82
2022/06/20 00:21:25;;;;;;;;;;;;;;;26.51;49.76;98967.44;1088495;54;19969;-82
2022/06/20 00:22:27;;;;;;;;;;;;;;;26.49;49.64;98969.66;1090566;46;19962;-79
2022/06/20 00:23:31;;;;;;;;;;;;;;;26.50;49.82;98968.56;1088608;54;19942;-80
2022/06/20 00:24:32;;;;;;;;;;;;;;;26.51;50.01;98960.06;1091812;46;19946;-80
2022/06/20 00:25:37;;;;;;;;;;;;;;;26.51;49.62;98968.28;1088556;54;19930;-80
2022/06/20 00:26:38;;;;;;;;;;;;;;;26.49;49.75;98967.72;1088500;54;19943;-79
2022/06/20 00:27:43;;;;;;;;;;;;;;;26.48;49.82;98968.81;1088521;54;20035;-79
2022/06/20 00:28:48;;;;;;;;;;;;;;;26.47;49.92;98969.91;1088618;54;19973;-79
2022/06/20 00:29:52;;;;;;;;;;;;;;;26.44;49.94;98965.00;1089769;46;19973;-78
2022/06/20 00:30:53;;;;;;;;;;;;;;;26.46;49.85;98963.63;1088556;54;19923;-78
2022/06/20 00:31:57;;;;;;;;;;;;;;;26.47;49.60;98959.81;1088462;54;20031;-78
2022/06/20 00:32:58;;;;;;;;;;;;;;;26.46;49.73;98958.16;1091003;46;19943;-79
2022/06/20 00:34:03;;;;;;;;;;;;;;;26.46;50.12;98958.16;1088352;54;20625;-78
2022/06/20 00:35:07;;;;;;;;;;;;;;;26.40;50.53;98955.69;1088753;46;19935;-79
2022/06/20 00:36:11;;;;;;;;;;;;;;;26.20;51.50;98959.28;1089101;46;19999;-79
2022/06/20 00:37:16;;;;;;;;;;;;;;;26.09;52.14;98958.44;1088565;54;19938;-80
2022/06/20 00:38:21;;;;;;;;;;;;;;;25.91;52.91;98968.81;1088571;54;19930;-78
2022/06/20 00:39:23;;;;;;;;;;;;;;;25.86;52.99;98957.88;1088521;54;19981;-80
2022/06/20 00:40:30;;;;;;;;;;;;;;;25.80;53.03;98964.41;1088544;54;19942;-76
2022/06/20 00:41:35;;;;;;;;;;;;;;;25.70;53.47;98963.31;1088464;54;19935;-80
2022/06/20 00:42:37;;;;;;;;;;;;;;;25.60;53.87;98963.28;1088444;54;19950;-78
2022/06/20 00:43:45;;;;;;;;;;;;;;;25.61;53.92;98966.88;1088506;54;19954;-79
2022/06/20 00:44:48;;;;;;;;;;;;;;;25.57;54.04;98960.28;1088458;54;19939;-78
2022/06/20 00:45:53;;;;;;;;;;;;;;;25.59;53.69;98960.84;1090168;46;19942;-82
2022/06/20 00:46:57;;;;;;;;;;;;;;;25.47;54.37;98963.81;1088535;54;19939;-80
2022/06/20 00:48:04;;;;;;;;;;;;;;;25.41;54.66;98965.72;1089328;46;19923;-78
2022/06/20 00:49:07;;;;;;;;;;;;;;;25.38;54.73;98961.59;1088519;54;19946;-80
2022/06/20 00:50:19;;;;;;;;;;;;;;;25.25;54.89;98970.28;1088464;54;19939;-82
2022/06/20 00:51:23;;;;;;;;;;;;;;;25.15;55.30;98971.09;1089017;46;19948;-77
2022/06/20 00:52:30;;;;;;;;;;;;;;;25.07;55.71;98966.94;1088309;54;19927;-77
2022/06/20 00:53:34;;;;;;;;;;;;;;;25.02;56.26;98963.38;1088275;54;19942;-76
2022/06/20 00:54:42;;;;;;;;;;;;;;;24.94;56.49;98969.34;1088073;54;20058;-78
2022/06/20 00:55:45;;;;;;;;;;;;;;;24.88;56.34;98973.97;1096640;46;19950;-78
2022/06/20 00:56:53;;;;;;;;;;;;;;;24.84;56.59;98978.31;1090134;46;19927;-80
2022/06/20 00:57:56;;;;;;;;;;;;;;;24.73;56.84;98975.53;1088524;54;20610;-77
2022/06/20 00:59:03;;;;;;;;;;;;;;;24.70;57.09;98975.25;1088501;54;19998;-77
2022/06/20 01:00:06;;;;;;;;;;;;;;;24.71;56.97;98966.78;1088376;54;19990;-77
2022/06/20 01:01:13;;;;;;;;;;;;;;;24.76;56.52;98968.72;1091843;46;19938;-78
2022/06/20 01:02:18;;;;;;;;;;;;;;;24.91;56.01;98965.25;1088448;54;19934;-78
2022/06/20 01:03:24;;;;;;;;;;;;;;;24.88;56.03;98973.97;1088492;54;19989;-78
2022/06/20 01:04:28;;;;;;;;;;;;;;;24.92;55.99;98972.34;1088520;54;19949;-79
2022/06/20 01:05:38;;;;;;;;;;;;;;;24.93;55.48;98982.19;1092750;46;19967;-78
2022/06/20 01:06:45;;;;;;;;;;;;;;;24.89;55.93;98983.81;1088434;54;19954;-78
2022/06/20 01:07:52;;;;;;;;;;;;;;;24.76;56.26;98988.66;1088524;54;19949;-79
2022/06/20 01:08:57;;;;;;;;;;;;;;;24.68;56.20;98980.94;1088467;54;19942;-78
2022/06/20 01:10:02;;;;;;;;;;;;;;;24.64;56.68;98981.72;1089529;46;19978;-77
2022/06/20 01:11:05;;;;;;;;;;;;;;;24.57;56.65;98979.22;1087977;54;20699;-76
2022/06/20 01:12:13;;;;;;;;;;;;;;;24.51;56.84;98978.38;1088155;54;20665;-76
2022/06/20 01:13:15;;;;;;;;;;;;;;;24.50;56.81;98979.47;1091051;46;19938;-76
2022/06/20 01:14:24;;;;;;;;;;;;;;;24.46;56.92;98989.25;1088496;54;19927;-77
2022/06/20 01:15:28;;;;;;;;;;;;;;;24.32;57.43;98999.81;1088406;54;19931;-77
2022/06/20 01:16:34;;;;;;;;;;;;;;;24.29;57.46;99012.06;1088396;54;19950;-76
2022/06/20 01:17:37;;;;;;;;;;;;;;;24.30;57.34;99012.88;1091937;39;20480;-76
2022/06/20 01:18:43;;;;;;;;;;;;;;;24.32;57.38;99013.44;1088437;54;19942;-77
2022/06/20 01:19:47;;;;;;;;;;;;;;;24.39;57.05;99008.59;1088407;54;19942;-77
2022/06/20 01:20:56;;;;;;;;;;;;;;;24.44;56.72;99002.34;1090522;46;19942;-78
2022/06/20 01:21:59;;;;;;;;;;;;;;;24.50;56.36;98989.53;1088167;54;20733;-78
2022/06/20 01:23:09;;;;;;;;;;;;;;;24.57;56.07;98987.41;1091376;46;20591;-76
2022/06/20 01:24:19;;;;;;;;;;;;;;;24.66;56.06;98998.66;1088255;54;19995;-78
2022/06/20 01:25:35;;;;;;;;;;;;;;;24.67;55.90;99000.31;1088307;54;19942;-78
2022/06/20 01:26:42;;;;;;;;;;;;;;;24.44;56.63;99016.84;1088163;54;19966;-77
2022/06/20 01:27:50;;;;;;;;;;;;;;;24.25;57.35;99019.13;1087969;54;19935;-78
2022/06/20 01:28:53;;;;;;;;;;;;;;;24.18;57.80;99004.06;1087680;54;19930;-76
2022/06/20 01:29:58;;;;;;;;;;;;;;;24.23;57.34;98999.44;1087948;54;19951;-76
2022/06/20 01:30:59;;;;;;;;;;;;;;;24.24;57.50;98997.56;1087928;54;19959;-77
2022/06/20 01:32:04;;;;;;;;;;;;;;;24.25;57.68;98993.75;1087980;46;19962;-77
2022/06/20 01:33:05;;;;;;;;;;;;;;;24.23;57.63;99002.19;1088010;54;19957;-79
2022/06/20 01:34:09;;;;;;;;;;;;;;;24.22;57.67;98988.78;1087934;54;20009;-77
2022/06/20 01:35:11;;;;;;;;;;;;;;;24.28;57.71;98982.28;1090111;39;20895;-78
2022/06/20 01:37:32;;;;;;;;;;;;;;;24.49;57.02;98987.91;1088023;54;19943;-78
2022/06/20 01:38:36;;;;;;;;;;;;;;;24.59;56.83;98982.50;1087939;54;19943;-77
2022/06/20 01:39:39;;;;;;;;;;;;;;;24.63;56.86;98977.34;1090951;39;20732;-79
2022/06/20 01:42:18;;;;;;;;;;;;;;;24.62;57.02;98987.44;1087972;54;19987;-78
2022/06/20 01:42:18;;;;;;;;;;;;;;;24.68;56.42;98991.06;1087907;54;20662;-77
2022/06/20 01:43:22;;;;;;;;;;;;;;;24.74;55.97;98990.84;1087968;54;19943;-77
2022/06/20 01:44:24;;;;;;;;;;;;;;;24.76;55.78;98982.38;1087922;54;19943;-78
2022/06/20 01:46:44;;;;;;;;;;;;;;;24.73;56.30;98988.34;1088275;54;19949;-77
2022/06/20 01:47:45;;;;;;;;;;;;;;;24.66;56.29;98991.28;1088365;54;19942;-77
2022/06/20 01:48:50;;;;;;;;;;;;;;;24.65;56.48;99000.59;1088322;54;19978;-77
2022/06/20 01:49:53;;;;;;;;;;;;;;;24.57;56.77;98998.31;1088359;54;19942;-78
2022/06/20 01:50:57;;;;;;;;;;;;;;;24.51;56.92;99002.13;1088388;54;19926;-78
2022/06/20 01:52:02;;;;;;;;;;;;;;;24.50;56.96;99001.31;1088301;54;19946;-77
2022/06/20 01:53:07;;;;;;;;;;;;;;;24.47;57.21;98995.56;1096045;39;20374;-78
2022/06/20 01:54:10;;;;;;;;;;;;;;;24.51;57.52;98997.50;1088490;54;19950;-77
2022/06/20 01:55:16;;;;;;;;;;;;;;;24.43;57.47;98989.75;1088184;54;21202;-78
2022/06/20 01:56:19;;;;;;;;;;;;;;;24.33;58.16;98990.53;1088487;54;19945;-77
2022/06/20 01:57:24;;;;;;;;;;;;;;;24.25;58.43;98985.56;1088993;46;19930;-78
2022/06/20 01:58:30;;;;;;;;;;;;;;;24.32;57.79;98985.34;1088531;54;19938;-80
2022/06/20 01:59:38;;;;;;;;;;;;;;;24.44;57.58;98978.59;1088465;54;19945;-79
2022/06/20 02:00:39;;;;;;;;;;;;;;;24.54;57.27;98979.75;1088251;54;19958;-79
2022/06/20 02:01:43;;;;;;;;;;;;;;;24.55;56.99;98981.41;1087925;54;19943;-79
2022/06/20 02:02:46;;;;;;;;;;;;;;;24.58;56.59;98970.78;1087974;54;19950;-78
2022/06/20 02:03:50;;;;;;;;;;;;;;;24.55;57.07;98981.41;1088336;54;19942;-79
2022/06/20 02:04:52;;;;;;;;;;;;;;;24.53;57.36;98976.19;1088351;54;19950;-78
2022/06/20 02:05:57;;;;;;;;;;;;;;;24.54;57.17;98980.56;1088376;54;19931;-77
2022/06/20 02:07:00;;;;;;;;;;;;;;;24.56;56.98;98991.25;1088311;54;19962;-77
2022/06/20 02:08:06;;;;;;;;;;;;;;;24.56;57.30;98988.50;1088374;54;19943;-78
2022/06/20 02:09:09;;;;;;;;;;;;;;;24.58;57.11;98991.78;1088308;54;19966;-78
2022/06/20 02:10:14;;;;;;;;;;;;;;;24.58;56.93;98998.09;1088267;54;19942;-78
2022/06/20 02:11:19;;;;;;;;;;;;;;;24.58;57.16;98991.78;1088316;54;19942;-78
2022/06/20 02:12:23;;;;;;;;;;;;;;;24.58;57.12;98991.78;1088292;54;20022;-78
2022/06/20 02:13:27;;;;;;;;;;;;;;;24.55;57.18;98986.88;1088350;54;19942;-78
2022/06/20 02:14:36;;;;;;;;;;;;;;;24.55;57.41;98995.88;1088280;54;20582;-78
2022/06/20 02:15:38;;;;;;;;;;;;;;;24.50;57.74;99004.03;1088274;54;19939;-79
2022/06/20 02:16:44;;;;;;;;;;;;;;;24.43;57.91;98993.34;1088271;54;20877;-78
2022/06/20 02:17:46;;;;;;;;;;;;;;;24.53;57.31;98986.31;1088336;54;19942;-79
2022/06/20 02:18:51;;;;;;;;;;;;;;;24.44;57.71;98985.94;1087922;54;19942;-78
2022/06/20 02:19:54;;;;;;;;;;;;;;;24.22;58.73;99002.44;1087897;54;19949;-77
2022/06/20 02:21:01;;;;;;;;;;;;;;;24.18;58.90;98991.22;1088076;54;19931;-78
2022/06/20 02:22:04;;;;;;;;;;;;;;;24.32;58.16;98971.69;1088294;54;19943;-79
2022/06/20 02:23:09;;;;;;;;;;;;;;;24.35;57.75;98966.53;1088325;54;19942;-80
2022/06/20 02:24:12;;;;;;;;;;;;;;;24.32;57.93;98964.31;1088359;54;19943;-80
2022/06/20 02:25:25;;;;;;;;;;;;;;;24.10;58.89;98987.06;1088640;47;19943;-78
2022/06/20 02:26:27;;;;;;;;;;;;;;;24.04;59.31;98982.66;1088411;54;19943;-78
2022/06/20 02:27:33;;;;;;;;;;;;;;;23.99;59.31;98966.25;1088232;54;19942;-79
2022/06/20 02:28:37;;;;;;;;;;;;;;;24.07;58.99;98964.91;1090994;46;19938;-78
2022/06/20 02:29:44;;;;;;;;;;;;;;;24.08;58.90;98972.03;1088234;54;19942;-78
2022/06/20 02:30:45;;;;;;;;;;;;;;;24.04;58.90;98970.91;1088035;54;19945;-78
2022/06/20 02:31:50;;;;;;;;;;;;;;;23.99;58.95;98963.50;1087852;54;19966;-78
2022/06/20 02:32:54;;;;;;;;;;;;;;;24.05;58.66;98962.47;1087983;54;19942;-78
2022/06/20 02:33:58;;;;;;;;;;;;;;;23.92;59.26;98971.88;1090524;39;20278;-80
2022/06/20 02:35:00;;;;;;;;;;;;;;;23.85;59.59;98974.00;1088126;54;19943;-78
2022/06/20 02:36:06;;;;;;;;;;;;;;;23.96;59.14;98970.28;1089514;39;20486;-80
2022/06/20 02:37:10;;;;;;;;;;;;;;;23.92;59.61;98973.75;1087892;54;19949;-78
2022/06/20 02:38:14;;;;;;;;;;;;;;;24.03;58.80;98969.28;1087896;54;19949;-77
2022/06/20 02:39:16;;;;;;;;;;;;;;;24.09;59.03;98977.22;1087872;54;19926;-78
2022/06/20 02:40:21;;;;;;;;;;;;;;;24.16;58.20;98984.38;1087740;54;19946;-78
2022/06/20 02:41:23;;;;;;;;;;;;;;;24.05;59.07;98978.84;1087930;54;19942;-77
2022/06/20 02:42:30;;;;;;;;;;;;;;;24.06;58.80;98983.22;1087763;54;20066;-78
2022/06/20 02:43:36;;;;;;;;;;;;;;;24.17;58.28;98969.66;1087855;54;19942;-78
2022/06/20 02:44:41;;;;;;;;;;;;;;;24.23;57.97;98960.41;1087880;54;21156;-79
2022/06/20 02:45:45;;;;;;;;;;;;;;;24.10;58.65;98962.50;1087848;54;19943;-78
2022/06/20 02:46:51;;;;;;;;;;;;;;;23.96;58.88;98961.28;1087806;54;19949;-79
2022/06/20 02:47:56;;;;;;;;;;;;;;;23.92;59.25;98955.50;1088815;39;20482;-79
2022/06/20 02:49:03;;;;;;;;;;;;;;;23.71;59.83;98973.56;1087857;54;20302;-78
2022/06/20 02:50:05;;;;;;;;;;;;;;;23.70;59.96;98962.91;1087882;54;19966;-78
2022/06/20 02:51:10;;;;;;;;;;;;;;;23.73;59.77;98960.50;1087901;54;19927;-77
2022/06/20 02:52:15;;;;;;;;;;;;;;;23.73;59.86;98949.59;1087867;54;19995;-78
2022/06/20 02:53:21;;;;;;;;;;;;;;;23.64;60.56;98962.03;1087883;54;19935;-79
2022/06/20 02:54:24;;;;;;;;;;;;;;;23.65;60.16;98948.16;1088234;54;20780;-77
2022/06/20 02:55:28;;;;;;;;;;;;;;;23.65;60.39;98953.63;1094255;39;20467;-78
2022/06/20 02:56:32;;;;;;;;;;;;;;;23.63;60.58;98960.41;1091267;39;20547;-79
2022/06/20 02:57:37;;;;;;;;;;;;;;;23.52;60.96;98964.94;1088286;54;19943;-78
2022/06/20 02:58:40;;;;;;;;;;;;;;;23.56;60.48;98970.69;1088677;39;20570;-79
2022/06/20 02:59:46;;;;;;;;;;;;;;;23.48;61.18;98980.16;1088257;54;19934;-79
2022/06/20 03:00:53;;;;;;;;;;;;;;;23.37;61.94;98987.41;1088273;54;19938;-78
2022/06/20 03:02:01;;;;;;;;;;;;;;;23.32;62.55;98995.53;1088999;47;19931;-78
2022/06/20 03:03:09;;;;;;;;;;;;;;;23.36;62.09;99002.09;1088277;54;19949;-79
2022/06/20 03:04:13;;;;;;;;;;;;;;;23.31;62.33;99012.97;1088240;54;19942;-78
2022/06/20 03:05:15;;;;;;;;;;;;;;;23.23;61.75;99025.13;1088252;54;19933;-80
2022/06/20 03:06:22;;;;;;;;;;;;;;;23.14;62.04;99042.97;1091779;39;20361;-79
2022/06/20 03:07:28;;;;;;;;;;;;;;;23.04;61.83;99043.66;1088192;54;19943;-79
2022/06/20 03:08:30;;;;;;;;;;;;;;;23.13;61.78;99053.06;1088223;54;19938;-78
2022/06/20 03:09:35;;;;;;;;;;;;;;;23.13;61.64;99071.28;1087639;54;19954;-77
2022/06/20 03:10:39;;;;;;;;;;;;;;;23.08;61.48;99066.59;1088253;46;19958;-80
2022/06/20 03:11:43;;;;;;;;;;;;;;;22.98;61.23;99055.56;1092992;39;20626;-78
2022/06/20 03:12:44;;;;;;;;;;;;;;;22.77;62.07;99068.88;1088204;54;19950;-78
2022/06/20 03:13:48;;;;;;;;;;;;;;;22.64;62.45;99066.50;1088224;54;19927;-79
2022/06/20 03:14:51;;;;;;;;;;;;;;;22.52;62.94;99080.22;1088271;54;19938;-78
2022/06/20 03:15:58;;;;;;;;;;;;;;;22.42;62.87;99083.56;1088189;54;19935;-78
2022/06/20 03:16:59;;;;;;;;;;;;;;;22.41;62.87;99087.34;1088224;54;19927;-78
2022/06/20 03:18:06;;;;;;;;;;;;;;;22.52;62.67;99091.91;1088267;54;20042;-79
2022/06/20 03:19:11;;;;;;;;;;;;;;;22.49;62.56;99092.41;1088224;54;19966;-78
2022/06/20 03:20:16;;;;;;;;;;;;;;;22.52;62.39;99099.25;1096286;39;20541;-80
2022/06/20 03:21:21;;;;;;;;;;;;;;;22.61;62.17;99086.03;1088763;47;19938;-78
2022/06/20 03:22:27;;;;;;;;;;;;;;;22.65;61.89;99092.66;1090616;46;19949;-80
2022/06/20 03:23:29;;;;;;;;;;;;;;;22.49;62.20;99095.13;1088289;54;19966;-78
2022/06/20 03:25:52;;;;;;;;;;;;;;;22.65;61.51;99098.94;1088339;54;19962;-78
2022/06/20 03:26:53;;;;;;;;;;;;;;;22.51;62.31;99109.31;1088236;54;19942;-78
2022/06/20 03:27:57;;;;;;;;;;;;;;;22.55;62.08;99105.03;1088151;54;19943;-78
2022/06/20 03:28:58;;;;;;;;;;;;;;;22.47;62.44;99107.31;1088111;54;19942;-78
2022/06/20 03:30:04;;;;;;;;;;;;;;;22.44;62.60;99105.94;1088288;54;20044;-78
2022/06/20 03:31:09;;;;;;;;;;;;;;;22.50;62.42;99095.97;1090431;47;19975;-79
2022/06/20 03:32:13;;;;;;;;;;;;;;;22.65;61.69;99092.66;1091769;47;20575;-77
2022/06/20 03:33:16;;;;;;;;;;;;;;;22.77;61.44;99104.28;1088368;54;19950;-79
2022/06/20 03:34:21;;;;;;;;;;;;;;;22.78;61.62;99102.41;1088367;54;20345;-78
2022/06/20 03:35:23;;;;;;;;;;;;;;;22.84;60.93;99096.78;1088452;47;19926;-79
2022/06/20 03:36:28;;;;;;;;;;;;;;;22.88;60.38;99106.09;1088295;54;19997;-77
2022/06/20 03:37:29;;;;;;;;;;;;;;;22.88;60.69;99111.53;1088159;54;19947;-80
2022/06/20 03:38:33;;;;;;;;;;;;;;;22.74;61.12;99124.66;1091473;31;20744;-83
2022/06/20 03:39:35;;;;;;;;;;;;;;;22.74;61.11;99129.31;1088179;54;19933;-81
2022/06/20 03:40:40;;;;;;;;;;;;;;;22.80;61.09;99128.31;1088241;54;19943;-82
2022/06/20 03:41:41;;;;;;;;;;;;;;;22.86;60.66;99131.94;1088196;54;19995;-81
2022/06/20 03:42:45;;;;;;;;;;;;;;;22.87;60.47;99139.84;1088190;54;19949;-80
2022/06/20 03:43:50;;;;;;;;;;;;;;;22.90;60.50;99144.00;1088211;54;19949;-83
2022/06/20 03:44:56;;;;;;;;;;;;;;;22.99;60.39;99142.53;1087821;54;19954;-82
2022/06/20 03:45:58;;;;;;;;;;;;;;;22.91;60.72;99151.09;1087843;54;19965;-81
2022/06/20 03:47:10;;;;;;;;;;;;;;;22.98;60.46;99154.50;1087880;54;19942;-81
2022/06/20 03:48:13;;;;;;;;;;;;;;;22.94;60.68;99160.69;1088197;54;19942;-83
2022/06/20 03:49:19;;;;;;;;;;;;;;;22.92;60.75;99155.47;1088163;54;19934;-82
2022/06/20 03:50:24;;;;;;;;;;;;;;;22.87;60.44;99148.03;1088222;54;19938;-80
2022/06/20 03:51:31;;;;;;;;;;;;;;;22.68;61.15;99141.19;1088217;54;19950;-79
2022/06/20 03:52:35;;;;;;;;;;;;;;;22.66;61.68;99127.00;1088450;54;19946;-79
2022/06/20 06:51:30;;;;;;;;;;;;;;;22.76;60.23;99257.94;1087650;54;19976;-83
2022/06/20 06:52:36;;;;;;;;;;;;;;;22.67;60.55;99257.47;1088213;54;19943;-85
2022/06/20 06:53:43;;;;;;;;;;;;;;;22.81;60.30;99255.28;1088017;54;19955;-84
2022/06/20 06:54:53;;;;;;;;;;;;;;;22.97;59.89;99255.53;1088139;54;19950;-85
2022/06/20 06:56:00;;;;;;;;;;;;;;;23.16;59.44;99254.25;1087960;54;19954;-82
2022/06/20 06:57:07;;;;;;;;;;;;;;;23.32;58.93;99260.81;1088058;54;20341;-80
2022/06/20 06:58:13;;;;;;;;;;;;;;;23.46;58.34;99261.28;1088126;54;19945;-83
2022/06/20 06:59:20;;;;;;;;;;;;;;;23.52;58.25;99262.19;1088002;54;20452;-83
2022/06/20 07:00:23;;;;;;;;;;;;;;;23.37;58.37;99268.25;1088061;54;19999;-84
2022/06/20 07:01:31;;;;;;;;;;;;;;;23.24;58.76;99257.69;1088145;54;19965;-87
2022/06/20 07:02:35;;;;;;;;;;;;;;;23.11;59.03;99275.13;1088017;54;20645;-84
2022/06/20 07:03:42;;;;;;;;;;;;;;;23.10;59.21;99273.47;1088328;54;19946;-85
2022/06/20 07:04:49;;;;;;;;;;;;;;;23.01;59.43;99275.78;1088470;54;19950;-86
2022/06/20 07:05:55;;;;;;;;;;;;;;;23.09;59.14;99278.13;1088377;54;19950;-86
2022/06/20 07:09:13;;;;;;;;;;;;;;;23.49;58.46;99277.16;1088453;54;19926;-88
2022/06/20 07:10:35;;;;;;;;;;;;;;;23.30;58.81;99284.75;1088434;54;19998;-87
2022/06/20 07:11:42;;;;;;;;;;;;;;;23.24;59.17;99279.50;1088493;54;19933;-87
2022/06/20 07:13:53;;;;;;;;;;;;;;;23.43;58.52;99280.88;1088134;54;19934;-85
2022/06/20 07:14:58;;;;;;;;;;;;;;;23.71;57.82;99286.47;1088135;54;19991;-85
2022/06/20 07:16:03;;;;;;;;;;;;;;;23.87;57.40;99276.63;1087860;54;19961;-84
2022/06/20 07:17:11;;;;;;;;;;;;;;;23.97;57.20;99277.59;1087867;54;19949;-84
2022/06/20 07:18:21;;;;;;;;;;;;;;;24.06;56.85;99290.81;1087983;54;19947;-86
2022/06/20 07:19:26;;;;;;;;;;;;;;;24.13;56.93;99292.28;1087868;54;19943;-84
2022/06/20 07:20:32;;;;;;;;;;;;;;;24.04;56.61;99301.19;1089675;46;20641;-83
2022/06/20 07:21:37;;;;;;;;;;;;;;;24.15;56.42;99294.75;1088076;54;19982;-84
2022/06/20 07:22:39;;;;;;;;;;;;;;;23.99;56.55;99291.03;1087961;54;19950;-82
2022/06/20 07:23:45;;;;;;;;;;;;;;;24.09;56.35;99291.13;1087943;54;19942;-82
2022/06/20 07:24:53;;;;;;;;;;;;;;;24.04;56.34;99303.91;1088165;54;19947;-83
2022/06/20 07:25:55;;;;;;;;;;;;;;;23.99;56.29;99308.22;1088188;54;19942;-84
2022/06/20 07:27:06;;;;;;;;;;;;;;;24.03;56.66;99308.53;1088206;54;19946;-85
2022/06/20 07:28:21;;;;;;;;;;;;;;;24.17;55.99;99319.09;1088193;54;20007;-87
2022/06/20 07:29:27;;;;;;;;;;;;;;;24.16;55.69;99320.19;1088073;54;19942;-87
2022/06/20 07:30:34;;;;;;;;;;;;;;;24.33;55.29;99314.63;1088139;54;19949;-87
2022/06/20 07:31:40;;;;;;;;;;;;;;;24.21;55.39;99317.50;1088171;54;19938;-87
2022/06/20 07:32:46;;;;;;;;;;;;;;;24.54;54.87;99311.09;1088275;54;19957;-86
2022/06/20 07:33:52;;;;;;;;;;;;;;;24.67;54.43;99317.25;1088588;46;20023;-85
2022/06/20 07:34:57;;;;;;;;;;;;;;;24.82;53.81;99313.91;1088146;54;19943;-85
2022/06/20 07:35:59;;;;;;;;;;;;;;;24.97;53.56;99311.31;1088247;54;20683;-85
2022/06/20 07:37:07;;;;;;;;;;;;;;;25.10;52.99;99312.81;1087763;54;19969;-86
2022/06/20 07:38:12;;;;;;;;;;;;;;;25.21;53.07;99311.81;1087859;54;19942;-87
2022/06/20 07:39:21;;;;;;;;;;;;;;;25.37;52.62;99318.25;1087888;54;19950;-85
2022/06/20 07:40:30;;;;;;;;;;;;;;;25.54;51.96;99317.31;1087894;54;19943;-85
2022/06/20 07:41:34;;;;;;;;;;;;;;;25.10;52.59;99325.66;1087879;54;19949;-85
2022/06/20 07:42:41;;;;;;;;;;;;;;;24.98;52.67;99318.44;1087860;54;20014;-85
2022/06/20 07:43:44;;;;;;;;;;;;;;;25.08;52.89;99329.47;1087926;54;19954;-84
2022/06/20 07:44:51;;;;;;;;;;;;;;;24.98;53.18;99323.91;1087967;54;19988;-88
2022/06/20 07:45:55;;;;;;;;;;;;;;;25.01;52.75;99323.41;1088137;54;19942;-85
2022/06/20 07:48:05;;;;;;;;;;;;;;;25.13;51.98;99322.41;1087945;54;19939;-86
2022/06/20 07:49:12;;;;;;;;;;;;;;;24.85;52.57;99335.22;1088102;54;19954;-87
2022/06/20 07:50:16;;;;;;;;;;;;;;;24.87;52.52;99327.59;1088119;54;19942;-86
2022/06/20 07:51:21;;;;;;;;;;;;;;;25.09;51.55;99322.06;1087941;54;19942;-87
2022/06/20 07:53:33;;;;;;;;;;;;;;;24.84;51.91;99322.66;1088025;54;19930;-85
2022/06/20 07:54:37;;;;;;;;;;;;;;;24.89;52.15;99330.91;1090323;39;20025;-85
2022/06/20 07:55:47;;;;;;;;;;;;;;;25.15;51.04;99317.50;1088000;54;19943;-85
2022/06/20 07:58:16;;;;;;;;;;;;;;;24.95;51.51;99318.94;1087612;54;19950;-87
2022/06/20 07:59:19;;;;;;;;;;;;;;;24.95;51.72;99323.59;1087807;54;20007;-86
2022/06/20 08:00:25;;;;;;;;;;;;;;;25.24;51.28;99321.41;1087372;54;19939;-87
2022/06/20 08:01:28;;;;;;;;;;;;;;;25.33;51.24;99317.09;1088705;39;20648;-88
2022/06/20 08:02:34;;;;;;;;;;;;;;;25.27;51.10;99320.91;1087713;54;19942;-87
2022/06/20 08:03:38;;;;;;;;;;;;;;;25.06;51.43;99323.44;1097429;39;20739;-87
2022/06/20 08:04:44;;;;;;;;;;;;;;;25.18;51.24;99323.25;1087596;54;19950;-88
2022/06/20 08:05:48;;;;;;;;;;;;;;;25.53;50.63;99329.34;1087719;54;19967;-87
2022/06/20 08:06:54;;;;;;;;;;;;;;;25.90;49.97;99327.69;1087577;54;19990;-87
2022/06/20 08:08:01;;;;;;;;;;;;;;;26.03;49.49;99331.88;1088931;39;20924;-87
2022/06/20 08:09:07;;;;;;;;;;;;;;;25.83;49.49;99333.38;1091742;39;20605;-86
2022/06/20 08:10:14;;;;;;;;;;;;;;;25.60;50.03;99329.13;1087577;54;19942;-85
2022/06/20 08:12:44;;;;;;;;;;;;;;;25.86;49.24;99316.44;1088073;54;19983;-85
2022/06/20 08:13:50;;;;;;;;;;;;;;;25.91;49.21;99313.72;1088330;54;19953;-86
2022/06/20 08:14:54;;;;;;;;;;;;;;;25.93;49.24;99306.09;1088322;54;19927;-86
2022/06/20 08:18:05;;;;;;;;;;;;;;;26.30;48.07;99291.50;1088087;54;19934;-87
2022/06/20 08:19:06;;;;;;;;;;;;;;;26.41;47.66;99294.28;1088335;54;20602;-87
2022/06/20 08:20:11;;;;;;;;;;;;;;;26.72;47.16;99299.88;1088329;54;19939;-84
2022/06/20 08:21:17;;;;;;;;;;;;;;;26.72;46.38;99287.00;1088275;54;19958;-85
2022/06/20 08:22:22;;;;;;;;;;;;;;;26.92;46.52;99282.69;1088225;54;19949;-87
2022/06/20 08:23:31;;;;;;;;;;;;;;;27.02;45.86;99281.84;1088357;54;19978;-87
2022/06/20 08:24:33;;;;;;;;;;;;;;;26.69;46.08;99290.25;1088270;54;20590;-86
2022/06/20 08:25:39;;;;;;;;;;;;;;;26.80;46.05;99293.06;1088213;54;20011;-88
2022/06/20 08:26:45;;;;;;;;;;;;;;;27.18;45.30;99293.66;1087889;54;20864;-86
2022/06/20 08:27:52;;;;;;;;;;;;;;;27.21;44.95;99295.88;1087910;54;19958;-88
2022/06/20 08:28:57;;;;;;;;;;;;;;;27.04;45.08;99293.38;1088294;54;19942;-83
2022/06/20 08:30:04;;;;;;;;;;;;;;;27.17;45.32;99292.84;1088343;54;19934;-86
2022/06/20 08:32:18;;;;;;;;;;;;;;;27.13;44.91;99289.00;1088228;54;19931;-88
2022/06/20 08:33:26;;;;;;;;;;;;;;;27.24;44.43;99284.34;1088358;54;19926;-87
2022/06/20 08:34:32;;;;;;;;;;;;;;;27.35;44.62;99279.69;1088264;54;20547;-86
2022/06/20 08:35:40;;;;;;;;;;;;;;;27.49;44.36;99290.97;1088301;54;19966;-86
2022/06/20 08:36:45;;;;;;;;;;;;;;;27.80;43.59;99283.50;1088268;54;20010;-85
2022/06/20 08:37:58;;;;;;;;;;;;;;;27.28;44.37;99279.16;1091368;39;20529;-85
2022/06/20 08:39:03;;;;;;;;;;;;;;;27.63;43.51;99286.53;1088228;54;19947;-86
2022/06/20 08:40:14;;;;;;;;;;;;;;;27.63;43.47;99274.75;1088015;54;19926;-86
2022/06/20 08:41:23;;;;;;;;;;;;;;;27.45;43.86;99279.72;1088211;54;19942;-88
2022/06/20 08:42:50;;;;;;;;;;;;;;;27.41;43.66;99278.56;1088450;54;19943;-85
2022/06/20 08:44:21;;;;;;;;;;;;;;;27.73;43.33;99269.25;1087963;54;21316;-87
2022/06/20 08:45:36;;;;;;;;;;;;;;;27.35;43.59;99274.19;1087979;54;20721;-87
2022/06/20 08:46:53;;;;;;;;;;;;;;;27.79;42.96;99267.31;1093776;39;20612;-84
2022/06/20 08:48:17;;;;;;;;;;;;;;;28.11;42.50;99269.72;1088276;54;19927;-87
2022/06/20 08:49:35;;;;;;;;;;;;;;;28.54;42.11;99268.41;1088175;54;20721;-86
2022/06/20 08:50:51;;;;;;;;;;;;;;;27.71;42.76;99276.94;1088316;54;19987;-87
2022/06/20 08:52:07;;;;;;;;;;;;;;;27.69;43.09;99268.97;1088795;39;20592;-86
2022/06/20 08:53:38;;;;;;;;;;;;;;;27.55;43.39;99268.72;1089199;46;19990;-86
2022/06/20 08:54:51;;;;;;;;;;;;;;;27.67;43.55;99270.38;1088245;54;20980;-86